Terminal Aerodrome Forecast
Issued by NWS

Home | Current Version | Previous Version | Text Only | Print | Product List | Glossary On
Versions: 1 2 3 4 5 6 7 8 9 10 11 12 13 14 15 16 17 18 19
681
FTUS43 KIND 112326
TAFHUF
TAF
KHUF 112326Z 1200/1224 00000KT P6SM SCT100 BKN250
     FM120300 00000KT P6SM OVC080
     FM120800 24004KT P6SM BKN040 OVC080
      TEMPO 1209/1213 3SM -SN
     FM121400 26010KT P6SM BKN025 OVC040
     FM122000 30015G23KT P6SM OVC025=

USA.gov is the U.S. government's official web portal to all federal, state and local government web resources and services.